Time;durP1;ratioP1;P1;durP2;ratioP2;P2;SDS_P1;SDS_P2;PMS_P1;PMS_P2;Temp;Humidity;BMP_temperature;BMP_pressure;BME280_temperature;BME280_humidity;BME280_pressure;Samples;Min_cycle;Max_cycle;Signal;HPM_P1;HPM_P2
2022/07/21 00:02:07;;;;;;;0.00;0.00;;;;;;;;;;5037208;28;20260;-71
2022/07/21 00:04:34;;;;;;;0.00;0.00;;;;;;;;;;5043019;28;20223;-71
2022/07/21 00:07:02;;;;;;;0.00;0.00;;;;;;;;;;5038469;28;20219;-71
2022/07/21 00:09:29;;;;;;;0.00;0.00;;;;;;;;;;5055157;28;20187;-70
2022/07/21 00:11:57;;;;;;;0.00;0.00;;;;;;;;;;5062258;28;20226;-71
2022/07/21 00:14:24;;;;;;;0.00;0.00;;;;;;;;;;5032314;28;20242;-71
2022/07/21 00:16:53;;;;;;;0.00;0.00;;;;;;;;;;5039272;28;20313;-70
2022/07/21 00:19:20;;;;;;;0.00;0.00;;;;;;;;;;5033376;28;20222;-71
2022/07/21 00:21:47;;;;;;;0.00;0.00;;;;;;;;;;5031913;28;20261;-71
2022/07/21 00:24:15;;;;;;;0.00;0.00;;;;;;;;;;5040181;28;20206;-71
2022/07/21 00:26:42;;;;;;;0.00;0.00;;;;;;;;;;5037180;28;20256;-71
2022/07/21 00:29:10;;;;;;;0.00;0.00;;;;;;;;;;5042436;28;20230;-71
2022/07/21 00:31:37;;;;;;;0.00;0.00;;;;;;;;;;5043855;28;20208;-71
2022/07/21 00:34:06;;;;;;;0.00;0.00;;;;;;;;;;5056346;28;20195;-72
2022/07/21 00:36:34;;;;;;;0.00;0.00;;;;;;;;;;5044905;28;20310;-72
2022/07/21 00:39:01;;;;;;;0.00;0.00;;;;;;;;;;5045859;28;20206;-71
2022/07/21 00:41:29;;;;;;;0.00;0.00;;;;;;;;;;5040249;28;20307;-72
2022/07/21 00:43:58;;;;;;;0.00;0.00;;;;;;;;;;5034336;28;20203;-71
2022/07/21 00:46:26;;;;;;;0.00;0.00;;;;;;;;;;5038569;28;20207;-71
2022/07/21 00:48:53;;;;;;;0.00;0.00;;;;;;;;;;5056275;28;20199;-71
2022/07/21 00:51:22;;;;;;;0.00;0.00;;;;;;;;;;5040976;28;20248;-73
2022/07/21 00:53:50;;;;;;;0.00;0.00;;;;;;;;;;5033757;28;20283;-70
2022/07/21 00:56:18;;;;;;;0.00;0.00;;;25.90;99.90;;;;;;5046467;28;20219;-73
2022/07/21 00:58:44;;;;;;;0.00;0.00;;;25.70;99.90;;;;;;5036899;28;20203;-71
2022/07/21 01:01:11;;;;;;;0.00;0.00;;;25.70;99.90;;;;;;5039581;28;20252;-71
2022/07/21 01:03:38;;;;;;;0.00;0.00;;;25.60;99.90;;;;;;5056201;28;20313;-71
2022/07/21 01:06:06;;;;;;;0.00;0.00;;;25.50;99.90;;;;;;5037692;28;20250;-71
2022/07/21 01:08:34;;;;;;;0.00;0.00;;;25.40;99.90;;;;;;5038583;28;20213;-71
2022/07/21 01:11:01;;;;;;;0.00;0.00;;;25.30;99.90;;;;;;5058762;28;20195;-73
2022/07/21 01:13:29;;;;;;;0.00;0.00;;;25.30;99.90;;;;;;5036351;28;20203;-70
2022/07/21 01:15:56;;;;;;;0.00;0.00;;;25.20;99.90;;;;;;5040717;28;20305;-71
2022/07/21 01:18:23;;;;;;;0.00;0.00;;;25.10;99.90;;;;;;5029570;28;20708;-72
2022/07/21 01:20:53;;;;;;;0.00;0.00;;;25.10;99.90;;;;;;5057359;28;20272;-71
2022/07/21 01:23:22;;;;;;;0.00;0.00;;;25.00;99.90;;;;;;5050746;28;20207;-72
2022/07/21 01:25:50;;;;;;;0.00;0.00;;;25.00;99.90;;;;;;5061769;28;20222;-72
2022/07/21 01:28:17;;;;;;;0.00;0.00;;;25.00;99.90;;;;;;5040248;28;20203;-71
2022/07/21 01:30:44;;;;;;;0.00;0.00;;;24.90;99.90;;;;;;5034113;28;20237;-72
2022/07/21 01:33:11;;;;;;;0.00;0.00;;;24.90;99.90;;;;;;5041240;28;20307;-72
2022/07/21 01:35:38;;;;;;;0.00;0.00;;;24.90;99.90;;;;;;5040091;28;20230;-72
2022/07/21 01:41:28;;;;;;;0.00;0.00;;;24.80;99.90;;;;;;5057574;28;20277;-71
2022/07/21 01:43:42;;;;;;;0.00;0.00;;;24.80;99.90;;;;;;5027514;28;20207;-72
2022/07/21 01:46:11;;;;;;;0.00;0.00;;;24.70;99.90;;;;;;5030119;28;20229;-72
2022/07/21 01:48:42;;;;;;;0.00;0.00;;;24.70;99.90;;;;;;5035352;28;20211;-70
2022/07/21 01:51:09;;;;;;;0.00;0.00;;;24.70;99.90;;;;;;5041291;28;20196;-71
2022/07/21 01:53:37;;;;;;;0.00;0.00;;;24.70;99.90;;;;;;5051943;28;20207;-73
2022/07/21 01:56:06;;;;;;;0.00;0.00;;;24.60;99.90;;;;;;5033150;28;20244;-70
2022/07/21 01:58:34;;;;;;;0.00;0.00;;;24.60;99.90;;;;;;5029483;28;20224;-72
2022/07/21 02:01:01;;;;;;;0.00;0.00;;;24.60;99.90;;;;;;5036707;28;20785;-71
2022/07/21 02:03:28;;;;;;;0.00;0.00;;;24.60;99.90;;;;;;5036345;28;20195;-72
2022/07/21 02:06:01;;;;;;;0.00;0.00;;;24.60;99.90;;;;;;5037195;28;20869;-70
2022/07/21 02:08:28;;;;;;;0.00;0.00;;;24.60;99.90;;;;;;5034773;28;20195;-71
2022/07/21 02:10:55;;;;;;;0.00;0.00;;;24.60;99.90;;;;;;5034336;28;20229;-71
2022/07/21 02:13:23;;;;;;;0.00;0.00;;;24.60;99.90;;;;;;5031508;28;20203;-73
2022/07/21 02:15:50;;;;;;;0.00;0.00;;;24.60;99.90;;;;;;5045003;28;20276;-73
2022/07/21 02:18:17;;;;;;;0.00;0.00;;;24.50;99.90;;;;;;5034199;28;20203;-73
2022/07/21 02:20:47;;;;;;;0.00;0.00;;;24.50;99.90;;;;;;5046040;28;20227;-73
2022/07/21 02:23:14;;;;;;;0.00;0.00;;;24.40;99.90;;;;;;5033888;28;20199;-73
2022/07/21 02:25:41;;;;;;;0.00;0.00;;;24.40;99.90;;;;;;5054567;28;20227;-73
2022/07/21 02:28:08;;;;;;;0.00;0.00;;;24.40;99.90;;;;;;5030429;28;20207;-71
2022/07/21 02:30:36;;;;;;;0.00;0.00;;;24.30;99.90;;;;;;5032410;28;20207;-73
2022/07/21 02:33:03;;;;;;;0.00;0.00;;;24.30;99.90;;;;;;5031133;28;20204;-72
2022/07/21 02:35:31;;;;;;;0.00;0.00;;;24.20;99.90;;;;;;5060307;28;20301;-73
2022/07/21 02:37:58;;;;;;;0.00;0.00;;;24.20;99.90;;;;;;5038188;28;20684;-72
2022/07/21 02:40:25;;;;;;;0.00;0.00;;;24.10;99.90;;;;;;5050448;28;20199;-72
2022/07/21 02:42:52;;;;;;;0.00;0.00;;;24.10;99.90;;;;;;5036869;28;20203;-71
2022/07/21 02:45:19;;;;;;;0.00;0.00;;;24.00;99.90;;;;;;5037414;28;20230;-74
2022/07/21 02:47:53;;;;;;;0.00;0.00;;;24.00;99.90;;;;;;5037937;28;20198;-74
2022/07/21 02:50:21;;;;;;;0.00;0.00;;;24.00;99.90;;;;;;5042561;28;20206;-72
2022/07/21 02:52:48;;;;;;;0.00;0.00;;;24.00;99.90;;;;;;5033277;28;20267;-72
2022/07/21 02:55:15;;;;;;;0.00;0.00;;;23.90;99.90;;;;;;5037058;28;20233;-71
2022/07/21 02:57:42;;;;;;;0.00;0.00;;;23.90;99.90;;;;;;5040083;28;20225;-72
2022/07/21 03:00:11;;;;;;;0.00;0.00;;;23.90;99.90;;;;;;5035332;28;20203;-73
2022/07/21 03:02:38;;;;;;;0.00;0.00;;;23.80;99.90;;;;;;5048755;28;20276;-72
2022/07/21 03:05:07;;;;;;;0.00;0.00;;;23.80;99.90;;;;;;5045708;28;20225;-73
2022/07/21 03:07:34;;;;;;;0.00;0.00;;;23.70;99.90;;;;;;5048113;28;20198;-73
2022/07/21 03:10:01;;;;;;;0.00;0.00;;;23.70;99.90;;;;;;5053724;28;20197;-74
2022/07/21 03:12:28;;;;;;;0.00;0.00;;;23.70;99.90;;;;;;5039645;28;20263;-73
2022/07/21 03:14:55;;;;;;;0.00;0.00;;;23.60;99.90;;;;;;5055194;28;20253;-72
2022/07/21 03:17:22;;;;;;;0.00;0.00;;;23.60;99.90;;;;;;5035012;28;20207;-74
2022/07/21 03:19:49;;;;;;;0.00;0.00;;;23.60;99.90;;;;;;5034961;28;20210;-72
2022/07/21 03:22:18;;;;;;;0.00;0.00;;;23.60;99.90;;;;;;5050850;28;20254;-72
2022/07/21 03:24:44;;;;;;;0.00;0.00;;;23.60;99.90;;;;;;5037605;28;20226;-72
2022/07/21 03:27:12;;;;;;;0.00;0.00;;;23.60;99.90;;;;;;5034420;28;20294;-71
2022/07/21 03:29:39;;;;;;;0.00;0.00;;;23.60;99.90;;;;;;5029376;28;20211;-73
2022/07/21 03:32:06;;;;;;;0.00;0.00;;;23.60;99.90;;;;;;5052576;28;20305;-71
2022/07/21 03:34:33;;;;;;;0.00;0.00;;;23.70;99.90;;;;;;5054548;28;20287;-73
2022/07/21 03:37:00;;;;;;;0.00;0.00;;;23.60;99.90;;;;;;5040320;28;20214;-70
2022/07/21 03:39:28;;;;;;;0.00;0.00;;;23.70;99.90;;;;;;5040551;28;20565;-72
2022/07/21 03:41:55;;;;;;;0.00;0.00;;;23.70;99.90;;;;;;5035104;28;20252;-71
2022/07/21 03:44:22;;;;;;;0.00;0.00;;;23.70;99.90;;;;;;5056533;28;20250;-71
2022/07/21 03:46:49;;;;;;;0.00;0.00;;;23.80;99.90;;;;;;5035178;28;20257;-71
2022/07/21 03:49:16;;;;;;;0.00;0.00;;;23.80;99.90;;;;;;5038115;28;20202;-72
2022/07/21 03:51:43;;;;;;;0.00;0.00;;;23.80;99.90;;;;;;5040720;28;20289;-71
2022/07/21 03:54:10;;;;;;;0.00;0.00;;;23.80;99.90;;;;;;5025729;28;20304;-72
2022/07/21 03:56:38;;;;;;;0.00;0.00;;;23.90;99.90;;;;;;5041076;28;20202;-71
2022/07/21 03:59:05;;;;;;;0.00;0.00;;;23.90;99.90;;;;;;5060717;28;20199;-71
2022/07/21 04:01:32;;;;;;;0.00;0.00;;;24.00;99.90;;;;;;5041930;28;20214;-72
2022/07/21 04:03:59;;;;;;;0.00;0.00;;;24.00;99.90;;;;;;5038662;28;20208;-72
2022/07/21 04:06:26;;;;;;;0.00;0.00;;;24.10;99.90;;;;;;5028059;28;20649;-74
2022/07/21 04:08:53;;;;;;;0.00;0.00;;;24.10;99.90;;;;;;5035235;28;20206;-75
2022/07/21 04:11:20;;;;;;;0.00;0.00;;;24.10;99.90;;;;;;5035474;28;20608;-74
2022/07/21 04:13:48;;;;;;;0.00;0.00;;;24.10;99.90;;;;;;5055177;28;20206;-74
2022/07/21 04:16:15;;;;;;;0.00;0.00;;;24.10;99.90;;;;;;5035029;28;20227;-73
2022/07/21 04:18:42;;;;;;;0.00;0.00;;;24.10;99.90;;;;;;5028082;28;20207;-76
2022/07/21 04:21:09;;;;;;;0.00;0.00;;;24.00;99.90;;;;;;5054436;28;20238;-73
2022/07/21 04:23:36;;;;;;;0.00;0.00;;;24.00;99.90;;;;;;5028624;28;20739;-73
2022/07/21 04:26:03;;;;;;;0.00;0.00;;;24.00;99.90;;;;;;5031163;28;20223;-73
2022/07/21 04:28:30;;;;;;;0.00;0.00;;;24.00;99.90;;;;;;5030220;28;20229;-74
2022/07/21 04:30:58;;;;;;;0.00;0.00;;;24.00;99.90;;;;;;5027270;28;20207;-72
2022/07/21 04:33:25;;;;;;;0.00;0.00;;;24.10;99.90;;;;;;5033479;28;20257;-72
2022/07/21 04:35:52;;;;;;;0.00;0.00;;;24.10;99.90;;;;;;5033086;28;20246;-73
2022/07/21 04:38:19;;;;;;;0.00;0.00;;;24.20;99.90;;;;;;5052954;28;20199;-73
2022/07/21 04:40:45;;;;;;;0.00;0.00;;;24.20;99.90;;;;;;5030442;28;20294;-72
2022/07/21 04:43:13;;;;;;;0.00;0.00;;;24.30;99.90;;;;;;5036105;28;20232;-71
2022/07/21 04:45:39;;;;;;;0.00;0.00;;;24.30;99.90;;;;;;5031636;28;20222;-72
2022/07/21 04:48:08;;;;;;;0.00;0.00;;;24.40;99.90;;;;;;5038973;28;20284;-71
2022/07/21 04:50:35;;;;;;;0.00;0.00;;;24.40;99.90;;;;;;5027428;28;20653;-72
2022/07/21 04:53:02;;;;;;;0.00;0.00;;;24.50;99.90;;;;;;5029687;28;20202;-73
2022/07/21 04:55:29;;;;;;;0.00;0.00;;;24.50;99.90;;;;;;5054657;28;20223;-75
2022/07/21 04:57:58;;;;;;;0.00;0.00;;;24.60;99.90;;;;;;5032797;28;20224;-74
2022/07/21 05:00:26;;;;;;;0.00;0.00;;;24.70;99.90;;;;;;5049275;28;20191;-72
2022/07/21 05:02:54;;;;;;;0.00;0.00;;;24.70;99.90;;;;;;5033724;28;20229;-72
2022/07/21 05:05:23;;;;;;;0.00;0.00;;;24.90;99.90;;;;;;5036016;28;20223;-72
2022/07/21 05:07:50;;;;;;;0.00;0.00;;;25.00;99.90;;;;;;5035530;28;20211;-72
2022/07/21 05:10:18;;;;;;;0.00;0.00;;;25.00;99.90;;;;;;5050685;28;20199;-72
2022/07/21 05:12:45;;;;;;;0.00;0.00;;;24.90;99.90;;;;;;5038545;28;20191;-73
2022/07/21 05:15:12;;;;;;;0.00;0.00;;;24.90;99.90;;;;;;5038584;28;20226;-73
2022/07/21 05:17:40;;;;;;;0.00;0.00;;;24.90;99.90;;;;;;5024958;28;20297;-73
2022/07/21 05:20:08;;;;;;;0.00;0.00;;;24.80;99.90;;;;;;5023704;28;20191;-73
2022/07/21 05:22:36;;;;;;;0.00;0.00;;;24.70;99.90;;;;;;5048124;28;20390;-72
2022/07/21 05:25:04;;;;;;;0.00;0.00;;;24.70;99.90;;;;;;5031752;28;20238;-73
2022/07/21 05:27:31;;;;;;;0.00;0.00;;;24.70;99.90;;;;;;5029884;28;20203;-73
2022/07/21 05:29:59;;;;;;;0.00;0.00;;;24.70;99.90;;;;;;5044362;28;20227;-73
2022/07/21 05:32:25;;;;;;;0.00;0.00;;;24.60;99.90;;;;;;5050793;28;20195;-73
2022/07/21 05:34:52;;;;;;;0.00;0.00;;;24.60;99.90;;;;;;5027479;28;20219;-72
2022/07/21 05:37:20;;;;;;;0.00;0.00;;;24.60;99.90;;;;;;5050290;28;20218;-73
2022/07/21 05:39:48;;;;;;;0.00;0.00;;;24.60;99.90;;;;;;5049663;28;20198;-72
2022/07/21 05:42:14;;;;;;;0.00;0.00;;;24.60;99.90;;;;;;5036866;28;20242;-73
2022/07/21 05:44:41;;;;;;;0.00;0.00;;;24.60;99.90;;;;;;5032436;28;20314;-71
2022/07/21 05:47:09;;;;;;;0.00;0.00;;;24.60;99.90;;;;;;5035066;28;20203;-72
2022/07/21 05:49:35;;;;;;;0.00;0.00;;;24.50;99.90;;;;;;5026694;28;20211;-72
2022/07/21 05:52:02;;;;;;;0.00;0.00;;;24.50;99.90;;;;;;5031294;28;20249;-73
2022/07/21 05:54:29;;;;;;;0.00;0.00;;;24.60;99.90;;;;;;5032605;28;20219;-72
2022/07/21 05:56:58;;;;;;;0.00;0.00;;;24.60;99.90;;;;;;5016721;28;20253;-73
2022/07/21 05:59:25;;;;;;;0.00;0.00;;;24.60;99.90;;;;;;5031711;28;20199;-73
2022/07/21 06:01:52;;;;;;;0.00;0.00;;;24.70;99.90;;;;;;5040079;28;20234;-72
2022/07/21 06:04:19;;;;;;;0.00;0.00;;;24.70;99.90;;;;;;5019371;28;20251;-73
2022/07/21 06:06:45;;;;;;;0.00;0.00;;;24.70;99.90;;;;;;5031234;28;20214;-73
2022/07/21 06:09:13;;;;;;;0.00;0.00;;;24.80;99.90;;;;;;5026568;28;20298;-73
2022/07/21 06:11:40;;;;;;;0.00;0.00;;;24.90;99.90;;;;;;5034298;28;20219;-73
2022/07/21 06:14:08;;;;;;;0.00;0.00;;;24.90;99.90;;;;;;5026073;28;20191;-73
2022/07/21 06:16:35;;;;;;;0.00;0.00;;;24.90;99.90;;;;;;5035028;28;20239;-73
2022/07/21 06:19:03;;;;;;;0.00;0.00;;;24.90;99.90;;;;;;5034741;28;20206;-74
2022/07/21 06:21:30;;;;;;;0.00;0.00;;;24.90;99.90;;;;;;5036037;28;20727;-74
2022/07/21 06:23:57;;;;;;;0.00;0.00;;;25.00;99.90;;;;;;5031402;28;20294;-73
2022/07/21 06:26:24;;;;;;;0.00;0.00;;;25.00;99.90;;;;;;5048048;28;20213;-74
2022/07/21 06:28:51;;;;;;;0.00;0.00;;;25.00;99.90;;;;;;5035995;28;20306;-73
2022/07/21 06:31:19;;;;;;;0.00;0.00;;;25.00;99.90;;;;;;5024897;28;20245;-74
2022/07/21 06:33:47;;;;;;;0.00;0.00;;;24.90;99.90;;;;;;5055470;28;20241;-74
2022/07/21 06:36:14;;;;;;;0.00;0.00;;;24.90;99.90;;;;;;5034662;28;20229;-73
2022/07/21 06:38:40;;;;;;;0.00;0.00;;;24.90;99.90;;;;;;5034310;28;20206;-74
2022/07/21 06:41:07;;;;;;;0.00;0.00;;;24.90;99.90;;;;;;5029351;28;20209;-74
2022/07/21 06:43:34;;;;;;;0.00;0.00;;;24.90;99.90;;;;;;5061361;28;20277;-74
2022/07/21 06:46:02;;;;;;;0.00;0.00;;;24.80;99.90;;;;;;5044627;28;20337;-72
2022/07/21 06:48:31;;;;;;;0.00;0.00;;;24.70;99.90;;;;;;5038650;28;20548;-73
2022/07/21 06:51:00;;;;;;;0.00;0.00;;;24.70;99.90;;;;;;5026540;28;20261;-74
2022/07/21 06:53:28;;;;;;;0.00;0.00;;;24.70;99.90;;;;;;5036554;28;20195;-73
2022/07/21 06:55:55;;;;;;;0.00;0.00;;;24.70;99.90;;;;;;5034336;28;20231;-73
2022/07/21 06:58:24;;;;;;;0.00;0.00;;;24.80;99.90;;;;;;5040584;28;20207;-73
2022/07/21 07:00:52;;;;;;;0.00;0.00;;;25.00;99.90;;;;;;5042114;28;20202;-73
2022/07/21 07:03:20;;;;;;;0.00;0.00;;;25.30;99.90;;;;;;5041022;28;20237;-74
2022/07/21 07:05:49;;;;;;;0.00;0.00;;;25.80;99.90;;;;;;5040611;28;20225;-73
2022/07/21 07:08:16;;;;;;;0.00;0.00;;;26.20;99.90;;;;;;5038398;28;20194;-73
2022/07/21 07:10:45;;;;;;;0.00;0.00;;;26.60;99.90;;;;;;5039395;28;20213;-74
2022/07/21 07:13:15;;;;;;;0.00;0.00;;;27.00;99.90;;;;;;5043077;28;20195;-72
2022/07/21 07:15:42;;;;;;;0.00;0.00;;;27.30;99.90;;;;;;5057738;28;20279;-73
2022/07/21 07:18:09;;;;;;;0.00;0.00;;;27.60;99.90;;;;;;5032587;28;20677;-73
2022/07/21 07:20:36;;;;;;;0.00;0.00;;;27.80;99.90;;;;;;5033065;28;20238;-74
2022/07/21 07:23:04;;;;;;;0.00;0.00;;;28.10;99.90;;;;;;5039281;28;20297;-73
2022/07/21 07:25:31;;;;;;;0.00;0.00;;;28.30;99.90;;;;;;5039900;28;20223;-73
2022/07/21 07:27:59;;;;;;;0.00;0.00;;;28.40;99.90;;;;;;5053912;28;20203;-74
2022/07/21 07:30:26;;;;;;;0.00;0.00;;;28.40;99.90;;;;;;5040673;28;20195;-73
2022/07/21 07:32:53;;;;;;;0.00;0.00;;;28.20;99.90;;;;;;5039036;28;20714;-73
2022/07/21 07:35:21;;;;;;;0.00;0.00;;;28.00;99.90;;;;;;5033038;28;20586;-75
2022/07/21 07:37:48;;;;;;;0.00;0.00;;;27.70;99.90;;;;;;5032063;28;20237;-73
2022/07/21 07:40:20;;;;;;;0.00;0.00;;;27.50;99.90;;;;;;5042063;28;20290;-73
2022/07/21 07:42:47;;;;;;;0.00;0.00;;;27.30;99.90;;;;;;5039527;28;20222;-74
2022/07/21 07:45:14;;;;;;;0.00;0.00;;;27.10;99.90;;;;;;5036565;28;20223;-73
2022/07/21 07:47:41;;;;;;;0.00;0.00;;;27.10;99.90;;;;;;5043000;28;20216;-73
2022/07/21 07:50:11;;;;;;;0.00;0.00;;;27.00;99.90;;;;;;5043702;28;20229;-73
2022/07/21 07:52:39;;;;;;;0.00;0.00;;;27.10;99.90;;;;;;5031155;28;20198;-72
2022/07/21 07:55:10;;;;;;;0.00;0.00;;;27.10;99.90;;;;;;5029871;28;20337;-73
2022/07/21 07:57:39;;;;;;;0.00;0.00;;;27.20;99.90;;;;;;5039892;28;20198;-75
2022/07/21 08:00:08;;;;;;;0.00;0.00;;;27.20;99.90;;;;;;5031992;28;20214;-73
2022/07/21 08:02:38;;;;;;;0.00;0.00;;;27.20;99.90;;;;;;5049213;28;20214;-73
2022/07/21 08:05:08;;;;;;;0.00;0.00;;;27.40;99.90;;;;;;5039179;28;20223;-74
2022/07/21 08:07:34;;;;;;;0.00;0.00;;;27.50;99.90;;;;;;5055333;28;20625;-73
2022/07/21 08:10:02;;;;;;;0.00;0.00;;;27.80;99.90;;;;;;5038685;28;20209;-75
2022/07/21 08:12:28;;;;;;;0.00;0.00;;;28.00;99.90;;;;;;5037299;28;20190;-73
2022/07/21 08:14:57;;;;;;;0.00;0.00;;;28.10;99.90;;;;;;5042310;28;20287;-73
2022/07/21 08:17:24;;;;;;;0.00;0.00;;;28.30;99.90;;;;;;5040760;28;20223;-73
2022/07/21 08:19:51;;;;;;;0.00;0.00;;;28.40;99.90;;;;;;5045395;28;20202;-73
2022/07/21 08:22:18;;;;;;;0.00;0.00;;;28.60;99.90;;;;;;5034426;28;20200;-73
2022/07/21 08:24:45;;;;;;;0.00;0.00;;;28.90;99.90;;;;;;5032153;28;20266;-75
2022/07/21 08:27:12;;;;;;;0.00;0.00;;;28.90;99.90;;;;;;5036287;28;20652;-74
2022/07/21 08:29:39;;;;;;;0.00;0.00;;;28.90;99.90;;;;;;5025869;28;20199;-74
2022/07/21 08:32:07;;;;;;;0.00;0.00;;;28.90;99.90;;;;;;5037991;28;20222;-73
2022/07/21 08:34:34;;;;;;;0.00;0.00;;;29.00;99.90;;;;;;5032373;28;20302;-73
2022/07/21 08:37:01;;;;;;;0.00;0.00;;;29.00;99.90;;;;;;5034711;28;20207;-74
2022/07/21 08:39:28;;;;;;;0.00;0.00;;;28.80;99.90;;;;;;5034717;28;20203;-73
2022/07/21 08:41:55;;;;;;;0.00;0.00;;;28.60;99.90;;;;;;5050588;28;20199;-74
2022/07/21 08:44:22;;;;;;;0.00;0.00;;;28.60;99.90;;;;;;5043671;28;20704;-73
2022/07/21 08:46:51;;;;;;;0.00;0.00;;;28.50;99.90;;;;;;5033908;28;20196;-73
2022/07/21 08:49:22;;;;;;;0.00;0.00;;;28.50;99.90;;;;;;5053853;28;20207;-73
2022/07/21 08:51:51;;;;;;;0.00;0.00;;;28.60;99.90;;;;;;5053888;28;20202;-73
2022/07/21 08:54:18;;;;;;;0.00;0.00;;;28.90;99.90;;;;;;5031657;28;20605;-74
2022/07/21 08:56:45;;;;;;;0.00;0.00;;;29.10;99.90;;;;;;5043027;28;20252;-73
2022/07/21 08:59:12;;;;;;;0.00;0.00;;;29.30;99.90;;;;;;5043538;28;20195;-75
2022/07/21 09:01:39;;;;;;;0.00;0.00;;;29.60;99.90;;;;;;5033638;28;20209;-73
2022/07/21 09:04:24;;;;;;;0.00;0.00;;;29.80;99.90;;;;;;5044406;28;20313;-75
2022/07/21 09:06:54;;;;;;;0.00;0.00;;;30.00;99.90;;;;;;5040361;28;20199;-72
2022/07/21 09:09:22;;;;;;;0.00;0.00;;;30.20;99.90;;;;;;5042455;28;20227;-73
2022/07/21 09:11:50;;;;;;;0.00;0.00;;;30.20;99.90;;;;;;5054278;28;20203;-73
2022/07/21 09:14:21;;;;;;;0.00;0.00;;;30.30;99.90;;;;;;5038870;28;20207;-73
2022/07/21 09:16:50;;;;;;;0.00;0.00;;;30.10;99.90;;;;;;5043718;28;20195;-74
2022/07/21 09:19:20;;;;;;;0.00;0.00;;;30.10;99.90;;;;;;5042779;28;20207;-73
2022/07/21 09:21:50;;;;;;;0.00;0.00;;;30.00;99.90;;;;;;5032797;28;20214;-72
2022/07/21 09:24:25;;;;;;;0.00;0.00;;;30.00;99.90;;;;;;5037139;28;20223;-74
2022/07/21 09:27:06;;;;;;;0.00;0.00;;;30.00;99.90;;;;;;5038840;28;20686;-75
2022/07/21 09:29:37;;;;;;;0.00;0.00;;;30.00;99.90;;;;;;5037134;28;20201;-74
2022/07/21 09:32:16;;;;;;;0.00;0.00;;;29.80;99.90;;;;;;5037747;28;20199;-72
2022/07/21 09:34:44;;;;;;;0.00;0.00;;;29.60;99.90;;;;;;5031749;28;20231;-72
2022/07/21 09:37:12;;;;;;;0.00;0.00;;;29.40;99.90;;;;;;5036162;28;20192;-72
2022/07/21 09:39:46;;;;;;;0.00;0.00;;;29.10;99.90;;;;;;5053801;28;20245;-73
2022/07/21 09:42:17;;;;;;;0.00;0.00;;;29.10;99.90;;;;;;5050902;28;20284;-73
2022/07/21 09:44:46;;;;;;;0.00;0.00;;;29.10;99.90;;;;;;5039113;28;20261;-73
2022/07/21 09:47:15;;;;;;;0.00;0.00;;;29.00;99.90;;;;;;5036124;28;20622;-74
2022/07/21 09:49:42;;;;;;;0.00;0.00;;;28.90;99.90;;;;;;5038309;28;20207;-74
2022/07/21 09:52:25;;;;;;;0.00;0.00;;;28.80;99.90;;;;;;5038967;28;20297;-73
2022/07/21 09:54:54;;;;;;;0.00;0.00;;;28.90;99.90;;;;;;5048802;28;20229;-72
2022/07/21 09:57:23;;;;;;;0.00;0.00;;;28.90;99.90;;;;;;5038114;28;20210;-74
2022/07/21 09:59:51;;;;;;;0.00;0.00;;;29.00;99.90;;;;;;5037280;28;20203;-73
2022/07/21 10:02:20;;;;;;;0.00;0.00;;;29.00;99.90;;;;;;5034264;28;20215;-73
2022/07/21 10:04:52;;;;;;;0.00;0.00;;;29.00;99.90;;;;;;5025578;28;20228;-73
2022/07/21 10:07:22;;;;;;;0.00;0.00;;;29.10;99.90;;;;;;5056464;28;20199;-73
2022/07/21 10:09:49;;;;;;;0.00;0.00;;;29.00;99.90;;;;;;5032340;28;20198;-74
2022/07/21 10:12:17;;;;;;;0.00;0.00;;;29.10;99.90;;;;;;5040614;28;20222;-73
2022/07/21 10:14:44;;;;;;;0.00;0.00;;;29.50;99.90;;;;;;5041125;28;20227;-73
2022/07/21 10:17:11;;;;;;;0.00;0.00;;;29.80;99.90;;;;;;5041427;28;20214;-74
2022/07/21 10:19:45;;;;;;;0.00;0.00;;;30.00;99.90;;;;;;5058926;28;20205;-73
2022/07/21 10:22:22;;;;;;;0.00;0.00;;;30.10;99.90;;;;;;5057331;28;20199;-73
2022/07/21 10:24:50;;;;;;;0.00;0.00;;;30.40;99.90;;;;;;5058006;28;20279;-73
2022/07/21 10:27:17;;;;;;;0.00;0.00;;;30.40;99.90;;;;;;5037368;28;20257;-73
2022/07/21 10:30:00;;;;;;;0.00;0.00;;;30.50;99.90;;;;;;5038398;28;20203;-74
2022/07/21 10:32:31;;;;;;;0.00;0.00;;;30.70;99.90;;;;;;5038448;28;20206;-73
2022/07/21 10:35:00;;;;;;;0.00;0.00;;;31.00;99.90;;;;;;5036248;28;20215;-74
2022/07/21 10:37:48;;;;;;;0.00;0.00;;;31.20;99.90;;;;;;5035960;28;20203;-73
2022/07/21 10:40:35;;;;;;;0.00;0.00;;;31.10;99.90;;;;;;5054286;28;20207;-73
2022/07/21 10:43:40;;;;;;;0.00;0.00;;;31.10;99.90;;;;;;5037227;28;20291;-74
2022/07/21 10:46:37;;;;;;;0.00;0.00;;;31.20;99.90;;;;;;5040047;28;20246;-73
2022/07/21 10:49:05;;;;;;;0.00;0.00;;;31.10;99.90;;;;;;5036816;28;20227;-73
2022/07/21 10:51:34;;;;;;;0.00;0.00;;;;;;;;;;5039877;28;20302;-73
2022/07/21 10:54:23;;;;;;;0.00;0.00;;;31.20;99.90;;;;;;5042424;28;20218;-73
2022/07/21 10:57:10;;;;;;;0.00;0.00;;;31.30;99.90;;;;;;5032388;28;20207;-73
2022/07/21 11:00:10;;;;;;;0.00;0.00;;;31.60;99.90;;;;;;5038839;28;20217;-73
2022/07/21 11:02:38;;;;;;;0.00;0.00;;;;;;;;;;5042976;28;20206;-73
2022/07/21 11:05:06;;;;;;;0.00;0.00;;;;;;;;;;5033451;28;20237;-73
2022/07/21 11:07:48;;;;;;;0.00;0.00;;;;;;;;;;5035272;28;20196;-73
2022/07/21 11:10:18;;;;;;;0.00;0.00;;;;;;;;;;5050578;28;20204;-73
2022/07/21 11:12:56;;;;;;;0.00;0.00;;;;;;;;;;5061491;28;20206;-74
2022/07/21 11:15:38;;;;;;;0.00;0.00;;;;;;;;;;5040939;28;20229;-75
2022/07/21 11:18:06;;;;;;;0.00;0.00;;;;;;;;;;5028387;28;20217;-74
2022/07/21 11:20:34;;;;;;;0.00;0.00;;;;;;;;;;5039804;28;20675;-75
2022/07/21 11:23:03;;;;;;;0.00;0.00;;;;;;;;;;5044865;28;20671;-73
2022/07/21 11:25:32;;;;;;;0.00;0.00;;;;;;;;;;5038486;28;20215;-73
2022/07/21 11:27:59;;;;;;;0.00;0.00;;;;;;;;;;5038025;28;20218;-73
2022/07/21 11:30:26;;;;;;;0.00;0.00;;;30.10;99.90;;;;;;5054447;28;20206;-73
2022/07/21 11:32:53;;;;;;;0.00;0.00;;;29.60;99.90;;;;;;5035530;28;20214;-72
2022/07/21 11:35:20;;;;;;;0.00;0.00;;;29.00;99.90;;;;;;5035389;28;20219;-73
2022/07/21 11:37:48;;;;;;;0.00;0.00;;;28.70;99.90;;;;;;5028681;28;20297;-74
2022/07/21 11:40:16;;;;;;;0.00;0.00;;;28.50;99.90;;;;;;5053171;28;20278;-74
2022/07/21 11:42:47;;;;;;;0.00;0.00;;;28.50;99.90;;;;;;5056956;28;20217;-74
2022/07/21 11:45:17;;;;;;;0.00;0.00;;;28.40;99.90;;;;;;5040698;28;20227;-75
2022/07/21 11:47:44;;;;;;;0.00;0.00;;;28.50;99.90;;;;;;5034570;28;20198;-74
2022/07/21 11:50:13;;;;;;;0.00;0.00;;;28.60;99.90;;;;;;5033390;28;20649;-73
2022/07/21 11:52:41;;;;;;;0.00;0.00;;;28.90;99.90;;;;;;5039844;28;20285;-73
2022/07/21 11:55:12;;;;;;;0.00;0.00;;;29.30;99.90;;;;;;5043675;28;20211;-75
2022/07/21 11:57:42;;;;;;;0.00;0.00;;;29.60;99.90;;;;;;5036519;28;20209;-74
2022/07/21 12:00:14;;;;;;;0.00;0.00;;;29.60;99.90;;;;;;5033559;28;20294;-74
2022/07/21 12:02:41;;;;;;;0.00;0.00;;;29.50;99.90;;;;;;5030699;28;20199;-73
2022/07/21 12:05:09;;;;;;;0.00;0.00;;;29.60;99.90;;;;;;5046079;28;20222;-73
2022/07/21 12:07:39;;;;;;;0.00;0.00;;;29.80;99.90;;;;;;5020310;28;20210;-74
2022/07/21 12:10:09;;;;;;;0.00;0.00;;;29.90;99.90;;;;;;5020592;28;20196;-74
2022/07/21 12:12:39;;;;;;;0.00;0.00;;;30.00;99.90;;;;;;5042673;28;20198;-73
2022/07/21 12:15:16;;;;;;;0.00;0.00;;;30.20;99.90;;;;;;5035183;28;20215;-74
2022/07/21 12:17:45;;;;;;;0.00;0.00;;;30.30;99.90;;;;;;5041132;28;20199;-73
2022/07/21 12:20:13;;;;;;;0.00;0.00;;;30.30;99.90;;;;;;5029093;28;20293;-74
2022/07/21 12:22:46;;;;;;;0.00;0.00;;;30.20;99.90;;;;;;5039217;28;20203;-75
2022/07/21 12:25:14;;;;;;;0.00;0.00;;;30.20;99.90;;;;;;5041056;28;20313;-74
2022/07/21 12:27:42;;;;;;;0.00;0.00;;;30.10;99.90;;;;;;5034158;28;20202;-76
2022/07/21 12:30:29;;;;;;;0.00;0.00;;;30.00;99.90;;;;;;5024660;28;20210;-73
2022/07/21 12:33:04;;;;;;;0.00;0.00;;;29.90;99.90;;;;;;5024666;28;20206;-74
2022/07/21 12:35:31;;;;;;;0.00;0.00;;;29.70;99.90;;;;;;5036218;28;20261;-74
2022/07/21 12:38:01;;;;;;;0.00;0.00;;;29.60;99.90;;;;;;5050300;28;20205;-73
2022/07/21 12:40:29;;;;;;;0.00;0.00;;;29.50;99.90;;;;;;5049094;28;20226;-74
2022/07/21 12:43:12;;;;;;;0.00;0.00;;;29.70;99.90;;;;;;5031219;28;20206;-74
2022/07/21 12:45:51;;;;;;;0.00;0.00;;;29.90;99.90;;;;;;5050345;28;20226;-74
2022/07/21 12:48:21;;;;;;;0.00;0.00;;;30.10;99.90;;;;;;5025176;28;20202;-73
2022/07/21 12:51:05;;;;;;;0.00;0.00;;;30.20;99.90;;;;;;5036356;28;20202;-74
2022/07/21 12:53:34;;;;;;;0.00;0.00;;;30.20;99.90;;;;;;5026678;28;20225;-74
2022/07/21 12:56:01;;;;;;;0.00;0.00;;;30.20;99.90;;;;;;5024827;28;20211;-74
2022/07/21 12:58:29;;;;;;;0.00;0.00;;;30.20;99.90;;;;;;5034662;28;20207;-74
2022/07/21 13:00:57;;;;;;;0.00;0.00;;;30.20;99.90;;;;;;5040084;28;20221;-74
2022/07/21 13:03:29;;;;;;;0.00;0.00;;;30.00;99.90;;;;;;5033813;28;20285;-74
2022/07/21 13:05:56;;;;;;;0.00;0.00;;;;;;;;;;5032604;28;20320;-74
2022/07/21 13:08:24;;;;;;;0.00;0.00;;;;;;;;;;5038063;28;20306;-73
2022/07/21 13:10:51;;;;;;;0.00;0.00;;;;;;;;;;5051085;28;20194;-74
2022/07/21 13:13:18;;;;;;;0.00;0.00;;;;;;;;;;5037792;28;20206;-74